Time;durP1;ratioP1;P1;durP2;ratioP2;P2;SDS_P1;SDS_P2;PMS_P1;PMS_P2;Temp;Humidity;BMP_temperature;BMP_pressure;BME280_temperature;BME280_humidity;BME280_pressure;Samples;Min_cycle;Max_cycle;Signal;HPM_P1;HPM_P2
2021/06/04 00:01:27;;;;;;;33.25;28.40;;;19.50;90.70;;;;;;4941748;29;20031;-84
2021/06/04 00:03:54;;;;;;;37.75;29.75;;;19.50;90.70;;;;;;4940470;29;20030;-84
2021/06/04 00:06:20;;;;;;;32.92;28.48;;;19.40;90.80;;;;;;4941949;29;20024;-83
2021/06/04 00:08:50;;;;;;;39.50;31.08;;;19.40;90.90;;;;;;4940662;29;20472;-82
2021/06/04 00:11:15;;;;;;;40.80;32.38;;;19.40;90.90;;;;;;4940820;29;20035;-83
2021/06/04 00:13:52;;;;;;;36.97;30.73;;;19.40;90.80;;;;;;4939815;29;20380;-80
2021/06/04 00:16:31;;;;;;;39.22;30.50;;;19.30;90.70;;;;;;4939704;29;20023;-81
2021/06/04 00:18:59;;;;;;;41.45;35.08;;;19.40;91.00;;;;;;4956758;29;20110;-81
2021/06/04 00:21:29;;;;;;;43.58;33.78;;;19.30;91.10;;;;;;4939581;29;20027;-82
2021/06/04 00:23:57;;;;;;;40.30;32.50;;;19.30;91.40;;;;;;4939093;29;20023;-82
2021/06/04 00:26:23;;;;;;;45.33;37.25;;;19.30;91.20;;;;;;4939519;29;20075;-82
2021/06/04 00:28:49;;;;;;;45.22;36.95;;;19.40;91.60;;;;;;4939186;29;20456;-82
2021/06/04 00:31:15;;;;;;;45.05;38.13;;;19.30;91.40;;;;;;4939633;29;20125;-84
2021/06/04 00:33:42;;;;;;;43.78;36.92;;;19.40;91.40;;;;;;4939462;29;20054;-82
2021/06/04 00:36:09;;;;;;;43.60;35.33;;;19.30;91.40;;;;;;4956444;29;20023;-82
2021/06/04 00:38:35;;;;;;;44.92;38.33;;;19.30;91.60;;;;;;4957744;29;20059;-82
2021/06/04 00:41:06;;;;;;;49.30;39.28;;;19.30;91.60;;;;;;4939790;29;20024;-83
2021/06/04 00:43:32;;;;;;;49.65;38.63;;;19.30;91.60;;;;;;4939744;29;20119;-83
2021/06/04 00:46:00;;;;;;;49.47;40.60;;;19.30;91.60;;;;;;4958258;29;20386;-83
2021/06/04 00:48:27;;;;;;;46.47;36.75;;;19.30;91.50;;;;;;4941327;29;20059;-82
2021/06/04 00:51:08;;;;;;;50.80;40.00;;;19.30;91.50;;;;;;4941098;29;20031;-82
2021/06/04 00:53:34;;;;;;;40.30;33.35;;;19.30;91.40;;;;;;4941929;29;20053;-83
2021/06/04 00:56:00;;;;;;;42.30;33.88;;;19.30;91.40;;;;;;4941687;29;20504;-82
2021/06/04 00:58:33;;;;;;;45.47;35.92;;;19.30;91.30;;;;;;4942687;29;20118;-83
2021/06/04 01:01:00;;;;;;;56.17;40.10;;;19.20;91.30;;;;;;4953609;29;20558;-82
2021/06/04 01:03:31;;;;;;;50.78;39.65;;;19.30;91.30;;;;;;4976632;28;20027;-83
2021/06/04 01:06:10;;;;;;;49.10;39.17;;;19.30;91.60;;;;;;4947708;29;20457;-81
2021/06/04 01:08:48;;;;;;;48.47;39.05;;;19.20;91.20;;;;;;4941064;29;20027;-83
2021/06/04 01:11:36;;;;;;;53.72;42.38;;;19.20;91.20;;;;;;4939341;29;20050;-83
2021/06/04 01:14:29;;;;;;;46.10;38.00;;;19.20;91.40;;;;;;4960287;29;20109;-83
2021/06/04 01:17:22;;;;;;;52.05;40.50;;;19.20;91.50;;;;;;4942411;29;20027;-83
2021/06/04 01:20:01;;;;;;;57.55;45.92;;;19.20;91.50;;;;;;4940294;29;20027;-82
2021/06/04 01:22:58;;;;;;;57.33;43.58;;;19.10;91.60;;;;;;4939656;29;20034;-82
2021/06/04 01:25:52;;;;;;;48.45;38.83;;;19.10;91.50;;;;;;4940094;29;20027;-82
2021/06/04 01:28:26;;;;;;;49.85;38.38;;;19.10;91.60;;;;;;4935839;29;20043;-83
2021/06/04 01:31:09;;;;;;;59.15;45.55;;;19.10;91.60;;;;;;4940104;29;20253;-82
2021/06/04 01:33:56;;;;;;;56.10;42.28;;;19.10;91.90;;;;;;4939487;29;20020;-81
2021/06/04 01:36:28;;;;;;;42.97;34.78;;;19.10;91.50;;;;;;4938880;29;20039;-82
2021/06/04 01:38:57;;;;;;;59.75;43.03;;;19.00;91.50;;;;;;4938457;28;20023;-82
2021/06/04 01:41:28;;;;;;;54.90;43.22;;;19.00;91.40;;;;;;4939004;29;20019;-81
2021/06/04 01:44:06;;;;;;;60.00;45.42;;;19.10;91.60;;;;;;4938991;29;20027;-82
2021/06/04 01:46:36;;;;;;;59.15;45.08;;;19.00;91.50;;;;;;4939787;29;20027;-82
2021/06/04 01:49:09;;;;;;;67.38;48.30;;;19.00;91.50;;;;;;4939125;29;20046;-83
2021/06/04 01:51:46;;;;;;;58.08;44.55;;;19.00;91.60;;;;;;4939114;29;20032;-82
2021/06/04 01:54:23;;;;;;;62.65;46.75;;;19.00;91.40;;;;;;4940962;29;20049;-81
2021/06/04 01:56:53;;;;;;;63.00;47.03;;;19.00;91.40;;;;;;4941165;29;20051;-83
2021/06/04 01:59:25;;;;;;;;;;;18.90;91.40;;;;;;4944303;29;20024;-82
2021/06/04 02:01:52;;;;;;;66.95;46.55;;;18.90;91.40;;;;;;4942915;29;19918;-83
2021/06/04 02:04:24;;;;;;;70.13;49.78;;;18.90;91.40;;;;;;4956078;29;20032;-82
2021/06/04 02:06:51;;;;;;;67.72;48.70;;;18.80;91.20;;;;;;4937924;29;20419;-83
2021/06/04 02:09:20;;;;;;;55.08;42.35;;;18.70;91.20;;;;;;4938100;29;20031;-82
2021/06/04 02:11:47;;;;;;;72.00;49.13;;;18.80;91.40;;;;;;4937566;29;20043;-82
2021/06/04 02:14:17;;;;;;;69.13;49.47;;;18.70;91.40;;;;;;4938211;29;20023;-82
2021/06/04 02:17:36;;;;;;;65.95;46.65;;;18.70;91.50;;;;;;4937801;29;20114;-82
2021/06/04 02:20:25;;;;;;;61.78;44.30;;;18.60;91.30;;;;;;4917725;29;20094;-83
2021/06/04 02:23:02;;;;;;;72.13;50.65;;;18.60;91.40;;;;;;4938293;29;20036;-83
2021/06/04 02:25:58;;;;;;;79.53;53.65;;;18.60;91.50;;;;;;4938167;29;20460;-83
2021/06/04 02:28:39;;;;;;;79.35;55.53;;;18.60;91.50;;;;;;4938911;29;20400;-83
2021/06/04 02:31:17;;;;;;;73.55;52.25;;;18.50;91.60;;;;;;4938287;29;20039;-82
2021/06/04 02:33:55;;;;;;;72.90;49.47;;;18.50;91.70;;;;;;4938372;29;20373;-83
2021/06/04 02:36:29;;;;;;;67.97;48.58;;;18.40;91.70;;;;;;4938581;29;20114;-83
2021/06/04 02:39:12;;;;;;;73.50;51.65;;;18.40;91.70;;;;;;4937763;29;20032;-85
2021/06/04 02:41:45;;;;;;;71.85;51.28;;;18.40;91.70;;;;;;4937699;29;20027;-84
2021/06/04 02:44:16;;;;;;;72.00;53.17;;;18.40;91.80;;;;;;4937718;29;20027;-84
2021/06/04 02:46:46;;;;;;;83.57;55.42;;;18.30;91.80;;;;;;4937857;29;20027;-84
2021/06/04 02:49:14;;;;;;;76.43;54.55;;;18.30;91.90;;;;;;4938153;29;20038;-83
2021/06/04 02:52:08;;;;;;;77.40;54.03;;;18.30;91.90;;;;;;4939360;29;20035;-84
2021/06/04 02:54:40;;;;;;;75.93;52.10;;;18.20;92.00;;;;;;4946380;29;20007;-80
2021/06/04 02:57:13;;;;;;;75.75;52.55;;;18.20;91.90;;;;;;4945575;29;20070;-83
2021/06/04 02:59:45;;;;;;;85.10;59.42;;;18.20;92.00;;;;;;4942655;29;20051;-83
2021/06/04 03:02:13;;;;;;;77.78;53.78;;;18.20;92.00;;;;;;4943180;29;20027;-84
2021/06/04 03:04:43;;;;;;;79.97;54.42;;;18.10;91.90;;;;;;4943253;29;20071;-84
2021/06/04 03:07:16;;;;;;;79.28;56.78;;;18.10;92.30;;;;;;4957084;29;20019;-82
2021/06/04 03:09:44;;;;;;;70.97;50.22;;;18.10;91.90;;;;;;4972365;28;20456;-84
2021/06/04 03:12:15;;;;;;;61.50;46.55;;;18.10;92.00;;;;;;4943932;29;20490;-83
2021/06/04 03:14:42;;;;;;;76.47;53.30;;;18.10;92.00;;;;;;4940883;29;20078;-84
2021/06/04 03:17:10;;;;;;;61.33;43.15;;;18.10;91.90;;;;;;4940831;29;20187;-82
2021/06/04 03:19:36;;;;;;;79.60;55.33;;;18.10;91.90;;;;;;4941054;29;20066;-83
2021/06/04 03:22:12;;;;;;;72.93;52.10;;;18.00;92.00;;;;;;4941344;29;20035;-83
2021/06/04 03:24:43;;;;;;;72.50;51.67;;;18.00;92.10;;;;;;4945489;29;20079;-84
2021/06/04 03:27:12;;;;;;;74.05;53.13;;;18.00;92.00;;;;;;4942750;29;20030;-84
2021/06/04 03:29:37;;;;;;;77.60;54.33;;;18.00;92.00;;;;;;4944440;29;20020;-85
2021/06/04 03:32:10;;;;;;;67.20;50.25;;;18.00;92.00;;;;;;4942717;29;20067;-85
2021/06/04 03:34:38;;;;;;;69.80;49.15;;;18.00;92.00;;;;;;4941767;29;20028;-85
2021/06/04 03:37:04;;;;;;;74.57;51.97;;;18.00;91.90;;;;;;4941508;29;20063;-85
2021/06/04 03:39:37;;;;;;;71.50;49.67;;;18.00;91.90;;;;;;4942356;29;20051;-87
2021/06/04 03:42:05;;;;;;;63.58;47.05;;;18.00;91.90;;;;;;4943056;29;20035;-87
2021/06/04 03:44:34;;;;;;;55.80;41.20;;;17.90;91.90;;;;;;4943501;29;20447;-86
2021/06/04 03:47:03;;;;;;;65.22;48.05;;;18.00;91.90;;;;;;4942909;29;20019;-87
2021/06/04 03:49:28;;;;;;;63.05;45.10;;;18.00;91.80;;;;;;4942706;29;20023;-89
2021/06/04 03:51:57;;;;;;;62.35;46.45;;;17.90;91.60;;;;;;4943397;29;20042;-89
2021/06/04 03:54:31;;;;;;;62.70;46.10;;;17.90;91.60;;;;;;4944660;29;20023;-89
2021/06/04 03:56:58;;;;;;;69.10;48.30;;;18.00;91.70;;;;;;4943448;29;20188;-88
2021/06/04 03:59:25;;;;;;;59.35;44.53;;;17.90;91.70;;;;;;4944844;29;20503;-90
2021/06/04 04:02:02;;;;;;;59.47;44.75;;;17.90;91.70;;;;;;4945325;29;20046;-88
2021/06/04 04:04:28;;;;;;;71.28;48.35;;;17.90;91.60;;;;;;4943200;29;20101;-90
2021/06/04 04:06:54;;;;;;;70.95;48.03;;;17.90;91.60;;;;;;4943912;29;20058;-90
2021/06/04 04:09:21;;;;;;;62.03;46.13;;;17.90;91.60;;;;;;4944030;29;20539;-90
2021/06/04 04:11:49;;;;;;;67.88;46.85;;;17.90;91.50;;;;;;4943587;29;20060;-89
2021/06/04 04:14:16;;;;;;;58.58;44.38;;;17.80;91.60;;;;;;4943315;29;20389;-88
2021/06/04 04:16:42;;;;;;;57.55;42.58;;;17.90;91.60;;;;;;4942893;29;20023;-90
2021/06/04 04:19:08;;;;;;;58.65;43.10;;;17.90;91.60;;;;;;4944634;29;20126;-87
2021/06/04 04:21:36;;;;;;;58.70;45.03;;;17.90;91.60;;;;;;4949115;29;20408;-91
2021/06/04 04:24:10;;;;;;;57.72;43.70;;;18.00;91.60;;;;;;4944310;29;20468;-91
2021/06/04 04:26:37;;;;;;;69.82;49.47;;;18.00;91.70;;;;;;4944484;29;20058;-89
2021/06/04 04:29:04;;;;;;;67.43;49.08;;;18.00;91.60;;;;;;4943650;29;20035;-89
2021/06/04 04:31:33;;;;;;;61.00;44.58;;;18.00;91.60;;;;;;4943718;29;20036;-89
2021/06/04 04:33:59;;;;;;;62.40;46.97;;;18.00;91.60;;;;;;4946866;29;20027;-89
2021/06/04 04:36:38;;;;;;;56.88;43.30;;;18.10;91.50;;;;;;4944823;29;20030;-89
2021/06/04 04:39:11;;;;;;;57.53;43.08;;;18.10;91.40;;;;;;4946542;29;20034;-88
2021/06/04 04:41:38;;;;;;;54.28;41.60;;;18.10;91.50;;;;;;4951404;29;20031;-89
2021/06/04 04:44:05;;;;;;;56.55;42.45;;;18.10;91.50;;;;;;4948826;29;20035;-89
2021/06/04 04:46:31;;;;;;;59.42;42.13;;;18.20;91.40;;;;;;4951816;29;20090;-89
2021/06/04 04:48:58;;;;;;;51.17;40.40;;;18.20;91.50;;;;;;4958698;29;20024;-89
2021/06/04 04:51:26;;;;;;;55.38;41.78;;;18.20;91.50;;;;;;4945502;29;20118;-87
2021/06/04 04:53:53;;;;;;;53.97;41.03;;;18.30;91.50;;;;;;4942462;29;20070;-89
2021/06/04 04:56:21;;;;;;;55.03;41.30;;;18.30;91.50;;;;;;4945212;29;20052;-89
2021/06/04 04:58:47;;;;;;;55.50;41.22;;;18.40;91.50;;;;;;4942452;29;20074;-89
2021/06/04 05:01:15;;;;;;;56.50;41.08;;;18.40;91.40;;;;;;4942517;29;20027;-88
2021/06/04 05:03:41;;;;;;;59.35;44.28;;;18.50;91.30;;;;;;4942962;29;20030;-88
2021/06/04 05:06:10;;;;;;;60.03;42.33;;;18.50;91.40;;;;;;4946485;29;20042;-88
2021/06/04 05:08:38;;;;;;;63.63;46.88;;;18.60;91.40;;;;;;4943982;29;20031;-89
2021/06/04 05:11:06;;;;;;;61.38;46.88;;;18.70;91.40;;;;;;4945049;29;20042;-88
2021/06/04 05:13:34;;;;;;;61.28;44.97;;;18.80;91.30;;;;;;4963076;28;20020;-89
2021/06/04 05:16:03;;;;;;;54.67;41.90;;;18.80;90.90;;;;;;4961656;28;20016;-88
2021/06/04 05:18:34;;;;;;;54.22;43.00;;;18.90;90.80;;;;;;4951787;28;20126;-88
2021/06/04 05:21:02;;;;;;;54.58;41.80;;;18.90;90.70;;;;;;4942783;29;20110;-87
2021/06/04 05:23:28;;;;;;;51.20;40.53;;;19.00;90.70;;;;;;4942724;29;20034;-86
2021/06/04 05:25:55;;;;;;;57.55;44.00;;;19.10;90.60;;;;;;4943383;29;20024;-87
2021/06/04 05:28:24;;;;;;;45.28;34.85;;;19.20;90.40;;;;;;4942669;29;20027;-87
2021/06/04 05:30:54;;;;;;;43.88;35.35;;;19.30;90.00;;;;;;4942878;29;20086;-89
2021/06/04 05:33:26;;;;;;;41.40;31.70;;;19.40;89.40;;;;;;4949519;29;20503;-88
2021/06/04 05:35:53;;;;;;;37.35;29.25;;;19.40;88.70;;;;;;4947100;29;20034;-87
2021/06/04 05:38:19;;;;;;;38.03;28.75;;;19.60;87.70;;;;;;4944433;29;20086;-89
2021/06/04 05:40:48;;;;;;;35.70;26.02;;;19.60;87.30;;;;;;4945488;29;20067;-88
2021/06/04 05:43:18;;;;;;;37.63;27.60;;;19.70;86.70;;;;;;4942903;29;20038;-87
2021/06/04 05:45:46;;;;;;;39.65;30.83;;;19.70;85.80;;;;;;4942367;29;20492;-88
2021/06/04 05:48:13;;;;;;;39.38;28.20;;;19.70;84.90;;;;;;4941067;29;20058;-88
2021/06/04 05:50:43;;;;;;;37.78;27.08;;;19.70;84.60;;;;;;4940953;29;20396;-89
2021/06/04 05:53:13;;;;;;;36.75;27.13;;;19.70;84.80;;;;;;4941710;29;20031;-89
2021/06/04 05:55:39;;;;;;;;;;;19.70;84.90;;;;;;4941825;29;20047;-90
2021/06/04 05:58:13;;;;;;;34.88;27.55;;;19.80;84.80;;;;;;4942790;29;19937;-90
2021/06/04 06:00:43;;;;;;;34.05;26.63;;;19.70;84.70;;;;;;4941251;29;20031;-89
2021/06/04 06:03:16;;;;;;;44.42;33.58;;;19.80;84.90;;;;;;4942537;29;20082;-89
2021/06/04 06:05:42;;;;;;;45.45;30.58;;;19.90;84.10;;;;;;4942796;29;20020;-88
2021/06/04 06:08:09;;;;;;;38.53;28.70;;;20.00;83.20;;;;;;4946853;29;20031;-88
2021/06/04 06:10:35;;;;;;;39.00;28.05;;;20.10;82.40;;;;;;4945144;29;20046;-88
2021/06/04 06:13:02;;;;;;;40.17;29.13;;;20.20;81.40;;;;;;4942174;29;20098;-90
2021/06/04 06:15:30;;;;;;;39.35;30.20;;;20.20;81.10;;;;;;4944444;29;20024;-91
2021/06/04 06:17:56;;;;;;;37.67;29.67;;;20.20;80.80;;;;;;4943954;29;20082;-92
2021/06/04 06:20:33;;;;;;;42.05;31.08;;;20.40;79.90;;;;;;4945821;29;20038;-91
2021/06/04 06:23:00;;;;;;;35.75;29.23;;;20.50;78.90;;;;;;4943829;29;20090;-90
2021/06/04 06:25:36;;;;;;;39.97;28.88;;;20.50;78.50;;;;;;4944883;28;20024;-91
2021/06/04 06:28:04;;;;;;;39.15;28.35;;;20.60;78.60;;;;;;4954149;29;20012;-89
2021/06/04 06:30:32;;;;;;;37.83;29.27;;;20.80;79.00;;;;;;4945585;29;20027;-90
2021/06/04 06:32:58;;;;;;;35.67;26.52;;;21.00;78.40;;;;;;4946400;29;20050;-89
2021/06/04 06:35:29;;;;;;;35.28;29.38;;;21.10;76.90;;;;;;4947302;29;20027;-89
2021/06/04 06:37:55;;;;;;;39.17;29.52;;;21.20;76.10;;;;;;4949498;29;20081;-90
2021/06/04 06:40:20;;;;;;;40.30;30.75;;;21.40;76.70;;;;;;4952204;29;20102;-85
2021/06/04 06:42:46;;;;;;;37.38;28.38;;;21.50;74.60;;;;;;4948552;29;20388;-84
2021/06/04 06:45:13;;;;;;;28.90;22.60;;;21.60;74.50;;;;;;4948724;29;20114;-88
2021/06/04 06:47:39;;;;;;;24.73;19.52;;;21.70;75.50;;;;;;4944072;29;20023;-88
2021/06/04 06:50:11;;;;;;;27.75;20.70;;;21.90;75.50;;;;;;4944300;29;20373;-88
2021/06/04 06:52:38;;;;;;;27.98;22.02;;;22.00;75.00;;;;;;4947272;29;20023;-87
2021/06/04 06:55:08;;;;;;;24.48;18.02;;;22.10;74.60;;;;;;4945483;29;20027;-87
2021/06/04 06:57:35;;;;;;;23.45;19.05;;;22.30;73.10;;;;;;4942802;29;20425;-88
2021/06/04 07:00:01;;;;;;;28.20;17.42;;;22.30;71.80;;;;;;4944106;29;20050;-87
2021/06/04 07:02:28;;;;;;;20.27;16.40;;;22.40;71.90;;;;;;4939993;29;20082;-86
2021/06/04 07:04:54;;;;;;;24.63;19.30;;;22.50;71.80;;;;;;4940910;29;20031;-86
2021/06/04 07:07:20;;;;;;;29.15;20.98;;;22.60;72.20;;;;;;4943855;29;20468;-88
2021/06/04 07:09:48;;;;;;;22.88;17.10;;;22.70;70.90;;;;;;4944091;29;20031;-88
2021/06/04 07:12:15;;;;;;;27.52;18.73;;;22.80;70.70;;;;;;4943725;29;20040;-88
2021/06/04 07:14:40;;;;;;;24.75;17.55;;;22.80;70.80;;;;;;4944593;29;20139;-86
2021/06/04 07:17:07;;;;;;;27.05;18.02;;;22.90;70.60;;;;;;4962477;29;20042;-87
2021/06/04 07:19:35;;;;;;;27.73;21.55;;;23.10;70.10;;;;;;4955443;29;20035;-87
2021/06/04 07:22:01;;;;;;;16.42;13.10;;;23.20;69.00;;;;;;4957377;29;20029;-85
2021/06/04 07:24:29;;;;;;;23.58;19.52;;;23.30;68.90;;;;;;4946805;29;20080;-83
2021/06/04 07:26:56;;;;;;;27.65;20.73;;;23.50;69.30;;;;;;4944674;29;20037;-87
2021/06/04 07:29:30;;;;;;;30.50;22.85;;;23.70;69.20;;;;;;4941672;28;20397;-85
2021/06/04 07:31:57;;;;;;;28.52;23.73;;;23.80;67.20;;;;;;4975111;28;20054;-86
2021/06/04 07:34:25;;;;;;;28.13;21.92;;;23.80;66.40;;;;;;4946095;29;20408;-87
2021/06/04 07:36:54;;;;;;;30.42;20.92;;;24.00;66.90;;;;;;4931476;29;20032;-89
2021/06/04 07:39:29;;;;;;;25.13;20.10;;;24.20;67.70;;;;;;4922432;29;20126;-87
2021/06/04 07:41:56;;;;;;;31.48;19.80;;;24.40;67.50;;;;;;4923372;29;20032;-87
2021/06/04 07:44:26;;;;;;;24.77;18.05;;;24.40;63.50;;;;;;4923284;29;20498;-85
2021/06/04 07:46:55;;;;;;;25.35;18.73;;;24.50;63.70;;;;;;4925091;29;20027;-87
2021/06/04 07:49:22;;;;;;;28.00;19.85;;;24.60;63.20;;;;;;4941723;29;20487;-85
2021/06/04 07:51:56;;;;;;;25.83;17.63;;;24.50;62.90;;;;;;4925328;29;20523;-87
2021/06/04 07:54:26;;;;;;;24.60;18.55;;;24.60;63.90;;;;;;4925441;29;20035;-88
2021/06/04 07:56:53;;;;;;;30.40;18.95;;;24.60;62.90;;;;;;4924089;29;20058;-85
2021/06/04 07:59:19;;;;;;;23.23;17.38;;;24.60;63.40;;;;;;4922815;29;20106;-86
2021/06/04 08:01:50;;;;;;;25.02;17.45;;;24.50;61.50;;;;;;4923056;29;20051;-83
2021/06/04 08:04:16;;;;;;;21.27;15.77;;;24.40;61.60;;;;;;4923076;29;20091;-84
2021/06/04 08:06:42;;;;;;;21.48;16.88;;;24.30;61.30;;;;;;4923217;29;20056;-84
2021/06/04 08:09:09;;;;;;;19.45;15.02;;;24.30;61.90;;;;;;4921794;29;20082;-82
2021/06/04 08:11:39;;;;;;;18.25;13.30;;;24.30;61.60;;;;;;4921462;29;20059;-83
2021/06/04 08:14:07;;;;;;;;;;;24.30;61.20;;;;;;4922245;29;20031;-83
2021/06/04 08:16:38;;;;;;;18.38;11.85;;;24.30;61.90;;;;;;4921450;29;20279;-83
2021/06/04 08:19:04;;;;;;;18.30;12.98;;;24.30;61.50;;;;;;4922121;29;20142;-86
2021/06/04 08:21:41;;;;;;;17.00;13.55;;;24.30;59.50;;;;;;4921878;29;20082;-83
2021/06/04 08:24:08;;;;;;;19.75;14.70;;;24.40;60.10;;;;;;4921516;29;20023;-85
2021/06/04 08:26:34;;;;;;;18.27;14.15;;;24.70;60.20;;;;;;4923846;29;20059;-88
2021/06/04 08:29:04;;;;;;;16.95;12.93;;;25.10;59.70;;;;;;4927338;29;20130;-82
2021/06/04 08:31:31;;;;;;;20.23;13.63;;;25.40;59.80;;;;;;4924344;29;20472;-81
2021/06/04 08:33:56;;;;;;;17.65;12.13;;;25.60;58.00;;;;;;4923134;29;20425;-80
2021/06/04 08:36:27;;;;;;;17.98;11.80;;;25.90;58.20;;;;;;4920921;29;20024;-81
2021/06/04 08:38:56;;;;;;;20.02;13.68;;;26.10;57.10;;;;;;4920257;29;20028;-79
2021/06/04 08:41:41;;;;;;;10.30;7.22;;;26.20;56.40;;;;;;4933412;29;20058;-82
2021/06/04 08:44:12;;;;;;;12.40;9.10;;;26.40;57.20;;;;;;4939092;29;20484;-80
2021/06/04 08:46:46;;;;;;;14.52;9.52;;;26.50;57.10;;;;;;4939396;29;20033;-81
2021/06/04 08:49:49;;;;;;;8.93;6.80;;;26.60;57.00;;;;;;4956126;28;20102;-80
2021/06/04 08:52:25;;;;;;;14.32;11.50;;;26.40;58.10;;;;;;4938900;29;20038;-82
2021/06/04 08:55:11;;;;;;;12.65;9.35;;;26.50;57.50;;;;;;4939036;29;20027;-80
2021/06/04 08:58:09;;;;;;;16.27;12.35;;;26.60;57.90;;;;;;4938904;29;20047;-81
2021/06/04 09:00:39;;;;;;;10.77;7.82;;;26.50;58.20;;;;;;4939128;29;20443;-78
2021/06/04 09:03:18;;;;;;;17.05;13.57;;;26.30;59.10;;;;;;4939030;29;20027;-78
2021/06/04 09:06:00;;;;;;;25.67;20.98;;;26.30;58.90;;;;;;4939226;29;20023;-78
2021/06/04 09:08:30;;;;;;;24.98;19.48;;;26.30;56.10;;;;;;4939108;29;20035;-78
2021/06/04 09:11:22;;;;;;;24.13;17.10;;;26.10;56.80;;;;;;4938434;29;20035;-78
2021/06/04 09:13:47;;;;;;;14.25;9.07;;;26.00;58.10;;;;;;4929654;29;20480;-78
2021/06/04 09:16:33;;;;;;;19.63;14.70;;;26.00;58.60;;;;;;4937306;29;20078;-79
2021/06/04 09:19:19;;;;;;;22.70;16.88;;;26.10;58.80;;;;;;4929008;29;20492;-79
2021/06/04 09:21:46;;;;;;;10.48;7.15;;;26.30;58.40;;;;;;4938516;29;20055;-78
2021/06/04 09:24:25;;;;;;;13.65;10.07;;;26.40;59.50;;;;;;4954145;29;20051;-79
2021/06/04 09:26:51;;;;;;;19.70;15.25;;;26.40;59.20;;;;;;4938515;29;20035;-79
2021/06/04 09:29:20;;;;;;;15.18;10.57;;;26.70;59.30;;;;;;4937843;29;20023;-79
2021/06/04 09:31:53;;;;;;;14.50;10.20;;;26.90;57.40;;;;;;4938126;29;20031;-78
2021/06/04 09:34:33;;;;;;;13.43;10.43;;;27.10;56.40;;;;;;4937815;29;20023;-78
2021/06/04 09:37:01;;;;;;;10.68;7.22;;;27.20;56.10;;;;;;4955693;29;20024;-79
2021/06/04 09:39:29;;;;;;;9.77;7.65;;;27.30;57.10;;;;;;4938061;29;20031;-78
2021/06/04 09:42:20;;;;;;;12.82;8.55;;;27.60;56.80;;;;;;4938218;29;20027;-78
2021/06/04 09:45:13;;;;;;;7.85;5.50;;;27.90;55.30;;;;;;4938587;29;20063;-79
2021/06/04 09:47:58;;;;;;;10.38;6.20;;;28.10;56.10;;;;;;4938818;29;20026;-79
2021/06/04 09:50:33;;;;;;;10.10;6.05;;;28.20;57.30;;;;;;4937939;29;20087;-78
2021/06/04 09:53:18;;;;;;;12.23;9.02;;;28.00;56.40;;;;;;4939270;29;20452;-77
2021/06/04 09:55:50;;;;;;;14.38;10.13;;;28.00;57.50;;;;;;4956501;28;20055;-79
2021/06/04 09:58:18;;;;;;;7.47;5.18;;;28.10;56.50;;;;;;4937878;29;20027;-79
2021/06/04 10:00:46;;;;;;;10.90;7.25;;;28.00;57.50;;;;;;4939281;29;20027;-78
2021/06/04 10:03:15;;;;;;;7.15;5.00;;;27.80;57.00;;;;;;4938707;29;20035;-77
2021/06/04 10:05:41;;;;;;;10.25;6.72;;;27.70;58.20;;;;;;4957990;29;20501;-78
2021/06/04 10:08:26;;;;;;;10.30;6.90;;;27.90;57.80;;;;;;4940547;29;20030;-78
2021/06/04 10:11:11;;;;;;;9.40;6.43;;;27.90;56.50;;;;;;4938334;29;20428;-84
2021/06/04 10:13:46;;;;;;;9.73;6.53;;;28.00;56.60;;;;;;4931176;29;20031;-82
2021/06/04 10:16:46;;;;;;;9.32;6.70;;;28.20;54.90;;;;;;4953531;29;20043;-81
2021/06/04 10:19:22;;;;;;;7.20;5.68;;;28.50;54.60;;;;;;4954991;28;20031;-80
2021/06/04 10:22:16;;;;;;;12.07;6.72;;;28.60;55.50;;;;;;4947125;29;20125;-79
2021/06/04 10:24:49;;;;;;;10.55;7.05;;;28.80;54.70;;;;;;4946662;29;20152;-84
2021/06/04 10:27:32;;;;;;;12.18;6.43;;;29.00;53.20;;;;;;4938509;29;20020;-84
2021/06/04 10:30:15;;;;;;;9.30;6.20;;;29.20;54.40;;;;;;4937877;29;20027;-81
2021/06/04 10:32:47;;;;;;;9.65;6.85;;;29.40;52.50;;;;;;4955295;29;20080;-80
2021/06/04 10:35:50;;;;;;;12.38;7.15;;;29.40;54.80;;;;;;4937682;29;20035;-80
2021/06/04 10:38:19;;;;;;;7.43;5.72;;;29.60;55.00;;;;;;4907638;29;20039;-79
2021/06/04 10:40:53;;;;;;;9.18;7.47;;;29.90;55.00;;;;;;4937869;29;20068;-82
2021/06/04 10:43:45;;;;;;;11.18;6.95;;;30.10;49.70;;;;;;4937611;29;20138;-83
2021/06/04 10:46:22;;;;;;;14.48;7.40;;;30.00;49.70;;;;;;4932973;29;20031;-83
2021/06/04 10:49:13;;;;;;;10.98;7.60;;;29.90;49.10;;;;;;4937719;29;20306;-78
2021/06/04 10:52:01;;;;;;;8.63;5.85;;;30.00;49.30;;;;;;4955562;29;20031;-83
2021/06/04 10:54:43;;;;;;;12.25;7.50;;;29.80;53.60;;;;;;4938092;29;20024;-77
2021/06/04 10:57:42;;;;;;;9.93;5.75;;;29.80;50.50;;;;;;4939395;29;20399;-82
2021/06/04 11:00:12;;;;;;;10.40;6.03;;;29.80;50.20;;;;;;4938381;29;20043;-81
2021/06/04 11:02:44;;;;;;;9.80;6.45;;;29.60;50.80;;;;;;4937921;29;20114;-80
2021/06/04 11:05:09;;;;;;;7.35;5.72;;;29.50;53.00;;;;;;4938043;29;20554;-81
2021/06/04 11:07:44;;;;;;;8.23;5.97;;;29.50;50.60;;;;;;4937867;29;20071;-82
2021/06/04 11:10:48;;;;;;;9.07;7.65;;;29.30;53.10;;;;;;4938283;29;20175;-81
2021/06/04 11:13:37;;;;;;;6.90;5.03;;;29.30;52.30;;;;;;4940665;29;20042;-82
2021/06/04 11:16:14;;;;;;;7.13;5.35;;;29.30;55.00;;;;;;4942335;29;20424;-81
2021/06/04 11:18:52;;;;;;;7.00;4.85;;;29.30;54.80;;;;;;4942271;29;20060;-82
2021/06/04 11:21:52;;;;;;;7.63;5.28;;;29.30;55.70;;;;;;4942121;29;20023;-83
2021/06/04 11:24:21;;;;;;;;;;;29.50;57.00;;;;;;4937343;29;20126;-81
2021/06/04 11:26:53;;;;;;;5.88;4.50;;;29.70;56.10;;;;;;4961189;28;19910;-82
2021/06/04 11:29:23;;;;;;;6.35;4.65;;;30.10;56.00;;;;;;4965505;29;20035;-83
2021/06/04 11:31:58;;;;;;;7.07;5.43;;;30.40;55.70;;;;;;4943715;29;20031;-82
2021/06/04 11:34:27;;;;;;;8.63;4.95;;;30.60;55.50;;;;;;4944846;29;20025;-82
2021/06/04 11:36:53;;;;;;;7.65;5.07;;;30.70;55.50;;;;;;4941114;29;20027;-83
2021/06/04 11:39:41;;;;;;;7.93;5.78;;;30.90;55.10;;;;;;4942065;29;20050;-82
2021/06/04 11:42:11;;;;;;;8.18;4.68;;;31.00;52.90;;;;;;4940789;29;20034;-83
2021/06/04 11:44:42;;;;;;;;;;;30.90;53.20;;;;;;4941706;29;20043;-83
2021/06/04 11:47:17;;;;;;;6.47;4.47;;;31.00;54.80;;;;;;4940956;29;20351;-83
2021/06/04 11:49:55;;;;;;;6.68;4.95;;;31.10;55.00;;;;;;4940689;29;20023;-83
2021/06/04 11:52:32;;;;;;;9.10;5.05;;;31.20;54.60;;;;;;4940915;29;20440;-84
2021/06/04 11:55:22;;;;;;;6.65;4.25;;;31.30;54.10;;;;;;4940648;29;20435;-81
2021/06/04 11:58:00;;;;;;;6.68;4.80;;;31.40;54.90;;;;;;4937362;29;20134;-82
2021/06/04 12:00:25;;;;;;;5.93;4.40;;;31.50;54.90;;;;;;4937082;29;20042;-83
2021/06/04 12:02:51;;;;;;;7.55;5.20;;;31.40;55.80;;;;;;4939018;29;20036;-83
2021/06/04 12:05:17;;;;;;;7.50;5.10;;;31.20;56.60;;;;;;4943311;29;20477;-83
2021/06/04 12:08:05;;;;;;;7.00;5.25;;;31.00;57.40;;;;;;4945076;29;20023;-81
2021/06/04 12:10:46;;;;;;;7.28;5.47;;;30.70;58.50;;;;;;4933099;29;20071;-82
2021/06/04 12:13:31;;;;;;;7.30;5.65;;;30.40;59.10;;;;;;4956956;29;20055;-82
2021/06/04 12:16:21;;;;;;;8.48;5.28;;;30.20;59.50;;;;;;4943637;29;20552;-82
2021/06/04 12:19:30;;;;;;;8.52;6.80;;;30.20;59.90;;;;;;4922225;29;20035;-84
2021/06/04 12:22:29;;;;;;;9.43;7.07;;;30.30;52.80;;;;;;4920371;29;20035;-82
2021/06/04 12:24:56;;;;;;;7.82;5.57;;;30.60;50.10;;;;;;4920586;29;20034;-84
2021/06/04 12:27:22;;;;;;;7.28;5.30;;;30.90;55.20;;;;;;4907689;29;20028;-83
2021/06/04 12:29:52;;;;;;;13.32;6.90;;;31.00;57.40;;;;;;4919964;29;20020;-82
2021/06/04 12:32:38;;;;;;;8.57;5.95;;;30.90;53.50;;;;;;4921113;29;20059;-85
2021/06/04 12:35:06;;;;;;;9.75;6.45;;;30.60;52.80;;;;;;4920563;29;20026;-81
2021/06/04 12:37:40;;;;;;;10.43;7.10;;;30.40;53.20;;;;;;4935544;29;20056;-81
2021/06/04 12:40:20;;;;;;;10.10;6.70;;;30.20;51.90;;;;;;4935887;29;20023;-80
2021/06/04 12:42:56;;;;;;;;;;;30.10;51.10;;;;;;4937088;29;20034;-82
2021/06/04 12:45:27;;;;;;;12.18;8.50;;;30.00;51.80;;;;;;4922115;29;19910;-83
2021/06/04 12:48:23;;;;;;;10.40;6.82;;;29.90;52.20;;;;;;4937907;29;20072;-81
2021/06/04 12:51:09;;;;;;;11.05;6.40;;;29.70;52.40;;;;;;4924556;29;20036;-80
2021/06/04 12:53:44;;;;;;;8.55;5.78;;;29.50;56.60;;;;;;4922250;29;20059;-83
2021/06/04 12:56:39;;;;;;;7.43;5.38;;;29.50;60.50;;;;;;4922341;29;20400;-83
2021/06/04 12:59:13;;;;;;;9.80;6.32;;;29.60;60.00;;;;;;4921409;29;20020;-85
2021/06/04 13:01:56;;;;;;;10.15;7.72;;;29.80;54.40;;;;;;4920299;29;20067;-85
2021/06/04 13:04:26;;;;;;;11.00;8.50;;;29.80;51.60;;;;;;4920118;29;20031;-88